sensor_id;sensor_type;location;lat;lon;timestamp;P1;durP1;ratioP1;P2;durP2;ratioP2
8698;SDS011;4386;51.236;6.742;2023-04-15T00:01:16;5.53;;;2.07;;
8698;SDS011;4386;51.236;6.742;2023-04-15T00:02:41;9.43;;;2.20;;
8698;SDS011;4386;51.236;6.742;2023-04-15T00:04:04;8.10;;;2.80;;
8698;SDS011;4386;51.236;6.742;2023-04-15T00:05:28;3.77;;;2.33;;
8698;SDS011;4386;51.236;6.742;2023-04-15T00:06:51;4.60;;;2.20;;
8698;SDS011;4386;51.236;6.742;2023-04-15T00:08:15;6.73;;;2.47;;
8698;SDS011;4386;51.236;6.742;2023-04-15T00:09:38;3.00;;;1.83;;
8698;SDS011;4386;51.236;6.742;2023-04-15T00:11:01;9.80;;;2.47;;
8698;SDS011;4386;51.236;6.742;2023-04-15T00:12:26;7.07;;;2.40;;
8698;SDS011;4386;51.236;6.742;2023-04-15T00:13:50;5.33;;;2.47;;
8698;SDS011;4386;51.236;6.742;2023-04-15T00:15:13;6.23;;;2.30;;
8698;SDS011;4386;51.236;6.742;2023-04-15T00:16:35;5.60;;;2.00;;
8698;SDS011;4386;51.236;6.742;2023-04-15T00:18:00;6.17;;;2.30;;
8698;SDS011;4386;51.236;6.742;2023-04-15T00:19:24;4.97;;;2.07;;
8698;SDS011;4386;51.236;6.742;2023-04-15T00:20:48;4.90;;;2.13;;
8698;SDS011;4386;51.236;6.742;2023-04-15T00:22:11;4.93;;;2.30;;
8698;SDS011;4386;51.236;6.742;2023-04-15T00:23:33;5.87;;;2.80;;
8698;SDS011;4386;51.236;6.742;2023-04-15T00:24:58;9.97;;;2.97;;
8698;SDS011;4386;51.236;6.742;2023-04-15T00:26:21;6.83;;;2.50;;
8698;SDS011;4386;51.236;6.742;2023-04-15T00:27:44;4.83;;;2.47;;
8698;SDS011;4386;51.236;6.742;2023-04-15T00:29:08;5.43;;;2.33;;
8698;SDS011;4386;51.236;6.742;2023-04-15T00:30:32;5.73;;;2.10;;
8698;SDS011;4386;51.236;6.742;2023-04-15T00:31:50;4.97;;;2.97;;
8698;SDS011;4386;51.236;6.742;2023-04-15T00:32:53;4.33;;;2.60;;
8698;SDS011;4386;51.236;6.742;2023-04-15T00:33:57;7.23;;;2.60;;
8698;SDS011;4386;51.236;6.742;2023-04-15T00:35:00;7.00;;;2.40;;
8698;SDS011;4386;51.236;6.742;2023-04-15T00:36:04;5.40;;;2.77;;
8698;SDS011;4386;51.236;6.742;2023-04-15T00:37:09;4.80;;;2.27;;
8698;SDS011;4386;51.236;6.742;2023-04-15T00:38:12;8.50;;;2.43;;
8698;SDS011;4386;51.236;6.742;2023-04-15T00:39:14;7.83;;;2.70;;
8698;SDS011;4386;51.236;6.742;2023-04-15T00:40:18;4.40;;;2.00;;
8698;SDS011;4386;51.236;6.742;2023-04-15T00:41:25;4.83;;;2.33;;
8698;SDS011;4386;51.236;6.742;2023-04-15T00:42:28;12.83;;;2.77;;
8698;SDS011;4386;51.236;6.742;2023-04-15T00:43:31;4.80;;;2.30;;
8698;SDS011;4386;51.236;6.742;2023-04-15T00:44:34;4.90;;;2.50;;
8698;SDS011;4386;51.236;6.742;2023-04-15T00:45:37;7.90;;;2.40;;
8698;SDS011;4386;51.236;6.742;2023-04-15T00:46:40;4.87;;;2.30;;
8698;SDS011;4386;51.236;6.742;2023-04-15T00:47:46;7.33;;;2.23;;
8698;SDS011;4386;51.236;6.742;2023-04-15T00:48:49;5.30;;;2.43;;
8698;SDS011;4386;51.236;6.742;2023-04-15T00:49:53;6.53;;;2.30;;
8698;SDS011;4386;51.236;6.742;2023-04-15T00:50:57;4.63;;;2.77;;
8698;SDS011;4386;51.236;6.742;2023-04-15T00:51:59;4.60;;;2.10;;
8698;SDS011;4386;51.236;6.742;2023-04-15T00:53:03;4.80;;;2.40;;
8698;SDS011;4386;51.236;6.742;2023-04-15T00:54:06;6.30;;;2.03;;
8698;SDS011;4386;51.236;6.742;2023-04-15T00:55:09;5.50;;;2.50;;
8698;SDS011;4386;51.236;6.742;2023-04-15T00:56:12;7.40;;;2.63;;
8698;SDS011;4386;51.236;6.742;2023-04-15T00:57:16;7.47;;;2.23;;
8698;SDS011;4386;51.236;6.742;2023-04-15T00:58:18;3.87;;;1.97;;
8698;SDS011;4386;51.236;6.742;2023-04-15T00:59:21;7.17;;;2.13;;
8698;SDS011;4386;51.236;6.742;2023-04-15T01:00:24;3.77;;;1.40;;
8698;SDS011;4386;51.236;6.742;2023-04-15T01:01:29;4.57;;;2.00;;
8698;SDS011;4386;51.236;6.742;2023-04-15T01:02:52;7.60;;;2.37;;
8698;SDS011;4386;51.236;6.742;2023-04-15T01:04:15;3.70;;;2.10;;
8698;SDS011;4386;51.236;6.742;2023-04-15T01:05:40;4.80;;;1.90;;
8698;SDS011;4386;51.236;6.742;2023-04-15T01:07:03;2.93;;;2.03;;
8698;SDS011;4386;51.236;6.742;2023-04-15T01:08:27;4.47;;;2.00;;
8698;SDS011;4386;51.236;6.742;2023-04-15T01:09:50;2.67;;;2.10;;
8698;SDS011;4386;51.236;6.742;2023-04-15T01:11:14;5.63;;;1.83;;
8698;SDS011;4386;51.236;6.742;2023-04-15T01:12:36;6.03;;;2.50;;
8698;SDS011;4386;51.236;6.742;2023-04-15T01:14:00;4.70;;;1.77;;
8698;SDS011;4386;51.236;6.742;2023-04-15T01:15:24;4.37;;;2.00;;
8698;SDS011;4386;51.236;6.742;2023-04-15T01:16:48;3.53;;;2.30;;
8698;SDS011;4386;51.236;6.742;2023-04-15T01:18:11;4.60;;;1.97;;
8698;SDS011;4386;51.236;6.742;2023-04-15T01:19:35;2.30;;;1.70;;
8698;SDS011;4386;51.236;6.742;2023-04-15T01:21:00;5.30;;;1.90;;
8698;SDS011;4386;51.236;6.742;2023-04-15T01:22:23;6.80;;;2.30;;
8698;SDS011;4386;51.236;6.742;2023-04-15T01:23:48;5.20;;;2.30;;
8698;SDS011;4386;51.236;6.742;2023-04-15T01:25:15;4.63;;;2.10;;
8698;SDS011;4386;51.236;6.742;2023-04-15T01:26:41;8.53;;;3.13;;
8698;SDS011;4386;51.236;6.742;2023-04-15T01:28:05;5.53;;;2.43;;
8698;SDS011;4386;51.236;6.742;2023-04-15T01:29:12;6.70;;;2.00;;
8698;SDS011;4386;51.236;6.742;2023-04-15T01:30:21;2.80;;;1.90;;
8698;SDS011;4386;51.236;6.742;2023-04-15T01:31:23;6.80;;;2.30;;
8698;SDS011;4386;51.236;6.742;2023-04-15T01:32:26;4.90;;;2.43;;
8698;SDS011;4386;51.236;6.742;2023-04-15T01:33:29;4.70;;;2.30;;
8698;SDS011;4386;51.236;6.742;2023-04-15T01:34:33;4.67;;;2.10;;
8698;SDS011;4386;51.236;6.742;2023-04-15T01:35:36;4.80;;;2.20;;
8698;SDS011;4386;51.236;6.742;2023-04-15T01:36:40;2.67;;;1.70;;
8698;SDS011;4386;51.236;6.742;2023-04-15T01:37:42;4.97;;;2.30;;
8698;SDS011;4386;51.236;6.742;2023-04-15T01:38:46;4.37;;;1.80;;
8698;SDS011;4386;51.236;6.742;2023-04-15T01:39:49;4.53;;;2.03;;
8698;SDS011;4386;51.236;6.742;2023-04-15T01:40:52;4.40;;;2.10;;
8698;SDS011;4386;51.236;6.742;2023-04-15T01:41:56;5.50;;;2.50;;
8698;SDS011;4386;51.236;6.742;2023-04-15T01:42:59;3.17;;;1.90;;
8698;SDS011;4386;51.236;6.742;2023-04-15T01:44:02;7.13;;;3.30;;
8698;SDS011;4386;51.236;6.742;2023-04-15T01:45:05;4.50;;;1.83;;
8698;SDS011;4386;51.236;6.742;2023-04-15T01:46:09;6.43;;;2.50;;
8698;SDS011;4386;51.236;6.742;2023-04-15T01:47:13;2.93;;;1.93;;
8698;SDS011;4386;51.236;6.742;2023-04-15T01:48:15;5.27;;;1.97;;
8698;SDS011;4386;51.236;6.742;2023-04-15T01:49:19;5.17;;;2.07;;
8698;SDS011;4386;51.236;6.742;2023-04-15T01:50:21;4.73;;;2.43;;
8698;SDS011;4386;51.236;6.742;2023-04-15T01:51:25;6.67;;;1.70;;
8698;SDS011;4386;51.236;6.742;2023-04-15T01:52:28;5.03;;;2.20;;
8698;SDS011;4386;51.236;6.742;2023-04-15T01:53:32;6.10;;;1.90;;
8698;SDS011;4386;51.236;6.742;2023-04-15T01:54:35;4.67;;;2.33;;
8698;SDS011;4386;51.236;6.742;2023-04-15T01:55:38;5.70;;;2.23;;
8698;SDS011;4386;51.236;6.742;2023-04-15T01:56:41;4.87;;;2.30;;
8698;SDS011;4386;51.236;6.742;2023-04-15T01:57:46;7.03;;;2.20;;
8698;SDS011;4386;51.236;6.742;2023-04-15T01:58:48;3.30;;;1.83;;
8698;SDS011;4386;51.236;6.742;2023-04-15T01:59:52;2.90;;;1.80;;
8698;SDS011;4386;51.236;6.742;2023-04-15T02:00:54;4.50;;;1.90;;
8698;SDS011;4386;51.236;6.742;2023-04-15T02:01:59;4.70;;;2.10;;
8698;SDS011;4386;51.236;6.742;2023-04-15T02:03:23;5.10;;;2.00;;
8698;SDS011;4386;51.236;6.742;2023-04-15T02:04:46;4.80;;;1.60;;
8698;SDS011;4386;51.236;6.742;2023-04-15T02:06:08;2.83;;;1.60;;
8698;SDS011;4386;51.236;6.742;2023-04-15T02:07:32;2.47;;;1.90;;
8698;SDS011;4386;51.236;6.742;2023-04-15T02:08:56;3.07;;;1.83;;
8698;SDS011;4386;51.236;6.742;2023-04-15T02:10:19;3.60;;;1.83;;
8698;SDS011;4386;51.236;6.742;2023-04-15T02:11:42;3.13;;;2.20;;
8698;SDS011;4386;51.236;6.742;2023-04-15T02:13:07;5.03;;;2.67;;
8698;SDS011;4386;51.236;6.742;2023-04-15T02:14:30;4.93;;;2.23;;
8698;SDS011;4386;51.236;6.742;2023-04-15T02:15:53;4.23;;;1.97;;
8698;SDS011;4386;51.236;6.742;2023-04-15T02:17:17;4.43;;;1.80;;
8698;SDS011;4386;51.236;6.742;2023-04-15T02:18:40;3.83;;;2.10;;
8698;SDS011;4386;51.236;6.742;2023-04-15T02:20:04;6.73;;;2.00;;
8698;SDS011;4386;51.236;6.742;2023-04-15T02:21:27;3.73;;;1.73;;
8698;SDS011;4386;51.236;6.742;2023-04-15T02:22:50;4.80;;;2.13;;
8698;SDS011;4386;51.236;6.742;2023-04-15T02:24:13;1.63;;;1.30;;
8698;SDS011;4386;51.236;6.742;2023-04-15T02:25:36;3.67;;;1.80;;
8698;SDS011;4386;51.236;6.742;2023-04-15T02:27:00;4.80;;;2.10;;
8698;SDS011;4386;51.236;6.742;2023-04-15T02:28:25;2.70;;;1.80;;
8698;SDS011;4386;51.236;6.742;2023-04-15T02:29:49;3.60;;;1.70;;
8698;SDS011;4386;51.236;6.742;2023-04-15T02:31:11;4.63;;;2.20;;
8698;SDS011;4386;51.236;6.742;2023-04-15T02:32:35;9.13;;;2.67;;
8698;SDS011;4386;51.236;6.742;2023-04-15T02:33:58;3.80;;;2.30;;
8698;SDS011;4386;51.236;6.742;2023-04-15T02:35:23;7.80;;;2.37;;
8698;SDS011;4386;51.236;6.742;2023-04-15T02:36:47;2.33;;;1.60;;
8698;SDS011;4386;51.236;6.742;2023-04-15T02:38:10;1.70;;;1.50;;
8698;SDS011;4386;51.236;6.742;2023-04-15T02:39:34;5.47;;;1.70;;
8698;SDS011;4386;51.236;6.742;2023-04-15T02:40:57;3.80;;;2.33;;
8698;SDS011;4386;51.236;6.742;2023-04-15T02:42:21;4.40;;;1.97;;
8698;SDS011;4386;51.236;6.742;2023-04-15T02:43:44;4.30;;;1.97;;
8698;SDS011;4386;51.236;6.742;2023-04-15T02:45:08;3.50;;;2.33;;
8698;SDS011;4386;51.236;6.742;2023-04-15T02:46:33;3.83;;;1.90;;
8698;SDS011;4386;51.236;6.742;2023-04-15T02:47:57;2.53;;;1.90;;
8698;SDS011;4386;51.236;6.742;2023-04-15T02:49:19;5.77;;;2.07;;
8698;SDS011;4386;51.236;6.742;2023-04-15T02:50:44;2.40;;;2.17;;
8698;SDS011;4386;51.236;6.742;2023-04-15T02:52:07;3.00;;;1.63;;
8698;SDS011;4386;51.236;6.742;2023-04-15T02:53:30;1.97;;;1.60;;
8698;SDS011;4386;51.236;6.742;2023-04-15T02:54:53;3.03;;;1.70;;
8698;SDS011;4386;51.236;6.742;2023-04-15T02:56:21;2.80;;;2.17;;
8698;SDS011;4386;51.236;6.742;2023-04-15T02:57:44;2.90;;;1.80;;
8698;SDS011;4386;51.236;6.742;2023-04-15T02:59:09;4.03;;;1.87;;
8698;SDS011;4386;51.236;6.742;2023-04-15T03:00:32;2.90;;;1.57;;
8698;SDS011;4386;51.236;6.742;2023-04-15T03:01:56;2.33;;;1.60;;
8698;SDS011;4386;51.236;6.742;2023-04-15T03:03:21;4.30;;;1.83;;
8698;SDS011;4386;51.236;6.742;2023-04-15T03:04:45;3.67;;;1.93;;
8698;SDS011;4386;51.236;6.742;2023-04-15T03:06:08;3.33;;;1.70;;
8698;SDS011;4386;51.236;6.742;2023-04-15T03:07:32;4.20;;;1.83;;
8698;SDS011;4386;51.236;6.742;2023-04-15T03:08:54;4.00;;;1.70;;
8698;SDS011;4386;51.236;6.742;2023-04-15T03:10:18;5.07;;;2.03;;
8698;SDS011;4386;51.236;6.742;2023-04-15T03:11:41;2.40;;;1.70;;
8698;SDS011;4386;51.236;6.742;2023-04-15T03:13:04;3.60;;;1.40;;
8698;SDS011;4386;51.236;6.742;2023-04-15T03:14:28;3.90;;;1.33;;
8698;SDS011;4386;51.236;6.742;2023-04-15T03:15:51;6.90;;;2.30;;
8698;SDS011;4386;51.236;6.742;2023-04-15T03:17:14;3.00;;;1.80;;
8698;SDS011;4386;51.236;6.742;2023-04-15T03:18:37;3.30;;;2.17;;
8698;SDS011;4386;51.236;6.742;2023-04-15T03:20:01;4.93;;;2.50;;
8698;SDS011;4386;51.236;6.742;2023-04-15T03:21:25;2.07;;;1.43;;
8698;SDS011;4386;51.236;6.742;2023-04-15T03:22:48;6.23;;;2.47;;
8698;SDS011;4386;51.236;6.742;2023-04-15T03:24:11;6.60;;;2.33;;
8698;SDS011;4386;51.236;6.742;2023-04-15T03:25:34;4.20;;;2.03;;
8698;SDS011;4386;51.236;6.742;2023-04-15T03:26:57;2.13;;;1.70;;
8698;SDS011;4386;51.236;6.742;2023-04-15T03:28:21;1.70;;;1.50;;
8698;SDS011;4386;51.236;6.742;2023-04-15T03:29:45;3.20;;;1.60;;
8698;SDS011;4386;51.236;6.742;2023-04-15T03:31:08;1.70;;;1.60;;
8698;SDS011;4386;51.236;6.742;2023-04-15T03:32:31;2.90;;;1.80;;
8698;SDS011;4386;51.236;6.742;2023-04-15T03:33:54;4.03;;;1.60;;
8698;SDS011;4386;51.236;6.742;2023-04-15T03:35:16;2.73;;;1.70;;
8698;SDS011;4386;51.236;6.742;2023-04-15T03:36:40;1.10;;;1.00;;
8698;SDS011;4386;51.236;6.742;2023-04-15T03:38:03;3.63;;;1.60;;
8698;SDS011;4386;51.236;6.742;2023-04-15T03:39:27;3.37;;;2.03;;
8698;SDS011;4386;51.236;6.742;2023-04-15T03:40:50;1.50;;;1.40;;
8698;SDS011;4386;51.236;6.742;2023-04-15T03:42:13;3.20;;;1.70;;
8698;SDS011;4386;51.236;6.742;2023-04-15T03:43:37;4.10;;;1.67;;
8698;SDS011;4386;51.236;6.742;2023-04-15T03:45:01;1.93;;;1.43;;
8698;SDS011;4386;51.236;6.742;2023-04-15T03:46:25;2.37;;;1.70;;
8698;SDS011;4386;51.236;6.742;2023-04-15T03:47:47;3.33;;;2.40;;
8698;SDS011;4386;51.236;6.742;2023-04-15T03:49:12;3.00;;;1.60;;
8698;SDS011;4386;51.236;6.742;2023-04-15T03:50:35;2.23;;;1.37;;
8698;SDS011;4386;51.236;6.742;2023-04-15T03:51:58;2.83;;;1.40;;
8698;SDS011;4386;51.236;6.742;2023-04-15T03:53:21;1.63;;;1.40;;
8698;SDS011;4386;51.236;6.742;2023-04-15T03:54:44;2.83;;;1.40;;
8698;SDS011;4386;51.236;6.742;2023-04-15T03:55:47;3.13;;;1.80;;
8698;SDS011;4386;51.236;6.742;2023-04-15T03:56:54;4.43;;;1.80;;
8698;SDS011;4386;51.236;6.742;2023-04-15T03:58:05;3.43;;;1.50;;
8698;SDS011;4386;51.236;6.742;2023-04-15T03:59:18;1.90;;;1.40;;
8698;SDS011;4386;51.236;6.742;2023-04-15T04:00:26;2.63;;;1.37;;
8698;SDS011;4386;51.236;6.742;2023-04-15T04:01:30;5.80;;;1.20;;
8698;SDS011;4386;51.236;6.742;2023-04-15T04:02:36;3.00;;;1.60;;
8698;SDS011;4386;51.236;6.742;2023-04-15T04:03:40;2.13;;;1.47;;
8698;SDS011;4386;51.236;6.742;2023-04-15T04:04:43;2.70;;;1.53;;
8698;SDS011;4386;51.236;6.742;2023-04-15T04:05:46;2.80;;;1.27;;
8698;SDS011;4386;51.236;6.742;2023-04-15T04:06:50;2.07;;;1.40;;
8698;SDS011;4386;51.236;6.742;2023-04-15T04:07:54;2.50;;;1.60;;
8698;SDS011;4386;51.236;6.742;2023-04-15T04:09:06;2.73;;;1.20;;
8698;SDS011;4386;51.236;6.742;2023-04-15T04:10:10;3.17;;;1.43;;
8698;SDS011;4386;51.236;6.742;2023-04-15T04:11:12;3.53;;;1.40;;
8698;SDS011;4386;51.236;6.742;2023-04-15T04:12:16;1.40;;;1.30;;
8698;SDS011;4386;51.236;6.742;2023-04-15T04:13:19;2.93;;;1.67;;
8698;SDS011;4386;51.236;6.742;2023-04-15T04:14:22;2.30;;;1.57;;
8698;SDS011;4386;51.236;6.742;2023-04-15T04:15:31;3.27;;;1.83;;
8698;SDS011;4386;51.236;6.742;2023-04-15T04:16:37;1.40;;;1.27;;
8698;SDS011;4386;51.236;6.742;2023-04-15T04:17:40;2.03;;;1.30;;
8698;SDS011;4386;51.236;6.742;2023-04-15T04:18:43;2.50;;;1.30;;
8698;SDS011;4386;51.236;6.742;2023-04-15T04:19:47;3.60;;;1.57;;
8698;SDS011;4386;51.236;6.742;2023-04-15T04:20:49;2.60;;;1.83;;
8698;SDS011;4386;51.236;6.742;2023-04-15T04:21:53;2.87;;;1.57;;
8698;SDS011;4386;51.236;6.742;2023-04-15T04:22:55;1.50;;;1.40;;
8698;SDS011;4386;51.236;6.742;2023-04-15T04:23:58;3.20;;;1.40;;
8698;SDS011;4386;51.236;6.742;2023-04-15T04:25:01;1.90;;;1.53;;
8698;SDS011;4386;51.236;6.742;2023-04-15T04:26:04;4.47;;;1.77;;
8698;SDS011;4386;51.236;6.742;2023-04-15T04:27:07;1.93;;;1.20;;
8698;SDS011;4386;51.236;6.742;2023-04-15T04:28:10;3.70;;;1.93;;
8698;SDS011;4386;51.236;6.742;2023-04-15T04:29:13;1.83;;;1.50;;
8698;SDS011;4386;51.236;6.742;2023-04-15T04:30:16;3.07;;;1.30;;
8698;SDS011;4386;51.236;6.742;2023-04-15T04:31:20;1.63;;;1.40;;
8698;SDS011;4386;51.236;6.742;2023-04-15T04:32:24;1.63;;;1.30;;
8698;SDS011;4386;51.236;6.742;2023-04-15T04:33:26;4.90;;;1.93;;
8698;SDS011;4386;51.236;6.742;2023-04-15T04:34:30;1.47;;;1.37;;
8698;SDS011;4386;51.236;6.742;2023-04-15T04:35:33;3.83;;;1.73;;
8698;SDS011;4386;51.236;6.742;2023-04-15T04:36:38;1.20;;;1.10;;
8698;SDS011;4386;51.236;6.742;2023-04-15T04:37:41;1.90;;;1.30;;
8698;SDS011;4386;51.236;6.742;2023-04-15T04:38:44;3.40;;;1.73;;
8698;SDS011;4386;51.236;6.742;2023-04-15T04:39:47;4.40;;;1.40;;
8698;SDS011;4386;51.236;6.742;2023-04-15T04:41:00;2.10;;;1.60;;
8698;SDS011;4386;51.236;6.742;2023-04-15T04:42:04;2.40;;;1.57;;
8698;SDS011;4386;51.236;6.742;2023-04-15T04:43:07;1.93;;;1.40;;
8698;SDS011;4386;51.236;6.742;2023-04-15T04:44:10;2.50;;;1.57;;
8698;SDS011;4386;51.236;6.742;2023-04-15T04:45:13;1.67;;;1.30;;
8698;SDS011;4386;51.236;6.742;2023-04-15T04:46:17;1.10;;;1.00;;
8698;SDS011;4386;51.236;6.742;2023-04-15T04:47:20;3.20;;;1.90;;
8698;SDS011;4386;51.236;6.742;2023-04-15T04:48:24;1.30;;;1.20;;
8698;SDS011;4386;51.236;6.742;2023-04-15T04:49:27;1.90;;;1.40;;
8698;SDS011;4386;51.236;6.742;2023-04-15T04:50:31;1.70;;;1.17;;
8698;SDS011;4386;51.236;6.742;2023-04-15T04:51:34;1.77;;;1.33;;
8698;SDS011;4386;51.236;6.742;2023-04-15T04:52:37;2.47;;;1.17;;
8698;SDS011;4386;51.236;6.742;2023-04-15T04:53:40;2.00;;;1.50;;
8698;SDS011;4386;51.236;6.742;2023-04-15T04:54:43;2.27;;;1.30;;
8698;SDS011;4386;51.236;6.742;2023-04-15T04:55:48;2.90;;;1.43;;
8698;SDS011;4386;51.236;6.742;2023-04-15T04:56:52;1.83;;;1.50;;
8698;SDS011;4386;51.236;6.742;2023-04-15T04:57:54;3.07;;;1.30;;
8698;SDS011;4386;51.236;6.742;2023-04-15T04:58:58;4.50;;;1.40;;
8698;SDS011;4386;51.236;6.742;2023-04-15T05:00:01;3.43;;;1.50;;
8698;SDS011;4386;51.236;6.742;2023-04-15T05:01:08;1.40;;;1.30;;
8698;SDS011;4386;51.236;6.742;2023-04-15T05:02:32;1.27;;;1.17;;
8698;SDS011;4386;51.236;6.742;2023-04-15T05:03:55;1.77;;;1.30;;
8698;SDS011;4386;51.236;6.742;2023-04-15T05:05:19;2.77;;;1.97;;
8698;SDS011;4386;51.236;6.742;2023-04-15T05:06:42;2.33;;;1.57;;
8698;SDS011;4386;51.236;6.742;2023-04-15T05:08:06;2.00;;;1.20;;
8698;SDS011;4386;51.236;6.742;2023-04-15T05:09:27;1.67;;;1.57;;
8698;SDS011;4386;51.236;6.742;2023-04-15T05:10:51;3.23;;;1.53;;
8698;SDS011;4386;51.236;6.742;2023-04-15T05:11:54;1.33;;;1.23;;
8698;SDS011;4386;51.236;6.742;2023-04-15T05:13:03;2.80;;;1.47;;
8698;SDS011;4386;51.236;6.742;2023-04-15T05:14:06;1.93;;;1.33;;
8698;SDS011;4386;51.236;6.742;2023-04-15T05:15:27;2.20;;;1.17;;
8698;SDS011;4386;51.236;6.742;2023-04-15T05:16:31;2.40;;;1.57;;
8698;SDS011;4386;51.236;6.742;2023-04-15T05:17:34;1.33;;;1.23;;
8698;SDS011;4386;51.236;6.742;2023-04-15T05:18:38;1.60;;;1.50;;
8698;SDS011;4386;51.236;6.742;2023-04-15T05:19:41;1.93;;;1.23;;
8698;SDS011;4386;51.236;6.742;2023-04-15T05:20:45;1.53;;;1.13;;
8698;SDS011;4386;51.236;6.742;2023-04-15T05:21:47;2.30;;;1.30;;
8698;SDS011;4386;51.236;6.742;2023-04-15T05:22:51;2.87;;;1.47;;
8698;SDS011;4386;51.236;6.742;2023-04-15T05:23:53;2.30;;;1.10;;
8698;SDS011;4386;51.236;6.742;2023-04-15T05:24:56;1.73;;;1.30;;
8698;SDS011;4386;51.236;6.742;2023-04-15T05:25:59;1.77;;;1.00;;
8698;SDS011;4386;51.236;6.742;2023-04-15T05:27:05;6.10;;;1.20;;
8698;SDS011;4386;51.236;6.742;2023-04-15T05:28:09;2.30;;;1.40;;
8698;SDS011;4386;51.236;6.742;2023-04-15T05:29:15;2.20;;;1.50;;
8698;SDS011;4386;51.236;6.742;2023-04-15T05:30:25;4.03;;;1.33;;
8698;SDS011;4386;51.236;6.742;2023-04-15T05:31:29;2.80;;;1.30;;
8698;SDS011;4386;51.236;6.742;2023-04-15T05:32:32;2.40;;;1.00;;
8698;SDS011;4386;51.236;6.742;2023-04-15T05:33:37;2.90;;;1.30;;
8698;SDS011;4386;51.236;6.742;2023-04-15T05:34:40;1.63;;;1.00;;
8698;SDS011;4386;51.236;6.742;2023-04-15T05:35:43;1.50;;;1.10;;
8698;SDS011;4386;51.236;6.742;2023-04-15T05:36:46;2.17;;;1.23;;
8698;SDS011;4386;51.236;6.742;2023-04-15T05:37:50;1.13;;;1.00;;
8698;SDS011;4386;51.236;6.742;2023-04-15T05:38:57;1.90;;;1.20;;
8698;SDS011;4386;51.236;6.742;2023-04-15T05:40:01;1.43;;;1.10;;
8698;SDS011;4386;51.236;6.742;2023-04-15T05:41:15;2.73;;;1.13;;
8698;SDS011;4386;51.236;6.742;2023-04-15T05:42:28;1.50;;;1.27;;
8698;SDS011;4386;51.236;6.742;2023-04-15T05:43:32;2.83;;;1.50;;
8698;SDS011;4386;51.236;6.742;2023-04-15T05:44:35;2.00;;;1.30;;
8698;SDS011;4386;51.236;6.742;2023-04-15T05:45:38;1.07;;;0.90;;
8698;SDS011;4386;51.236;6.742;2023-04-15T05:46:41;1.40;;;1.23;;
8698;SDS011;4386;51.236;6.742;2023-04-15T05:47:53;1.40;;;1.10;;
8698;SDS011;4386;51.236;6.742;2023-04-15T05:48:57;2.10;;;1.07;;
8698;SDS011;4386;51.236;6.742;2023-04-15T05:50:24;1.60;;;1.10;;
8698;SDS011;4386;51.236;6.742;2023-04-15T05:51:28;1.30;;;1.00;;
8698;SDS011;4386;51.236;6.742;2023-04-15T05:52:34;1.60;;;1.50;;
8698;SDS011;4386;51.236;6.742;2023-04-15T05:53:47;2.27;;;1.30;;
8698;SDS011;4386;51.236;6.742;2023-04-15T05:54:50;2.00;;;1.20;;
8698;SDS011;4386;51.236;6.742;2023-04-15T05:55:53;2.90;;;1.40;;
8698;SDS011;4386;51.236;6.742;2023-04-15T05:56:57;1.20;;;1.10;;
8698;SDS011;4386;51.236;6.742;2023-04-15T05:58:01;2.50;;;1.03;;
8698;SDS011;4386;51.236;6.742;2023-04-15T05:59:04;2.07;;;1.27;;
8698;SDS011;4386;51.236;6.742;2023-04-15T06:00:11;1.43;;;1.10;;
8698;SDS011;4386;51.236;6.742;2023-04-15T06:01:18;1.70;;;1.30;;
8698;SDS011;4386;51.236;6.742;2023-04-15T06:02:23;1.63;;;1.33;;
8698;SDS011;4386;51.236;6.742;2023-04-15T06:03:47;1.43;;;1.00;;
8698;SDS011;4386;51.236;6.742;2023-04-15T06:05:09;1.77;;;1.23;;
8698;SDS011;4386;51.236;6.742;2023-04-15T06:06:34;1.30;;;1.20;;
8698;SDS011;4386;51.236;6.742;2023-04-15T06:07:56;2.37;;;1.10;;
8698;SDS011;4386;51.236;6.742;2023-04-15T06:09:20;1.40;;;1.00;;
8698;SDS011;4386;51.236;6.742;2023-04-15T06:10:43;1.23;;;1.13;;
8698;SDS011;4386;51.236;6.742;2023-04-15T06:12:06;5.70;;;1.10;;
8698;SDS011;4386;51.236;6.742;2023-04-15T06:13:19;1.20;;;1.10;;
8698;SDS011;4386;51.236;6.742;2023-04-15T06:14:31;1.63;;;1.00;;
8698;SDS011;4386;51.236;6.742;2023-04-15T06:15:40;1.10;;;1.00;;
8698;SDS011;4386;51.236;6.742;2023-04-15T06:16:44;1.17;;;1.03;;
8698;SDS011;4386;51.236;6.742;2023-04-15T06:17:47;1.47;;;1.10;;
8698;SDS011;4386;51.236;6.742;2023-04-15T06:18:50;1.83;;;1.20;;
8698;SDS011;4386;51.236;6.742;2023-04-15T06:19:54;1.10;;;1.00;;
8698;SDS011;4386;51.236;6.742;2023-04-15T06:20:57;1.10;;;1.00;;
8698;SDS011;4386;51.236;6.742;2023-04-15T06:22:02;2.10;;;1.40;;
8698;SDS011;4386;51.236;6.742;2023-04-15T06:23:10;1.10;;;1.00;;
8698;SDS011;4386;51.236;6.742;2023-04-15T06:24:14;1.73;;;1.50;;
8698;SDS011;4386;51.236;6.742;2023-04-15T06:25:26;1.63;;;1.10;;
8698;SDS011;4386;51.236;6.742;2023-04-15T06:26:37;2.67;;;1.57;;
8698;SDS011;4386;51.236;6.742;2023-04-15T06:27:40;1.10;;;1.00;;
8698;SDS011;4386;51.236;6.742;2023-04-15T06:28:43;1.23;;;1.10;;
8698;SDS011;4386;51.236;6.742;2023-04-15T06:29:47;3.10;;;1.20;;
8698;SDS011;4386;51.236;6.742;2023-04-15T06:30:50;1.83;;;1.10;;
8698;SDS011;4386;51.236;6.742;2023-04-15T06:31:55;1.10;;;1.00;;
8698;SDS011;4386;51.236;6.742;2023-04-15T06:33:07;1.53;;;1.00;;
8698;SDS011;4386;51.236;6.742;2023-04-15T06:34:11;3.80;;;1.10;;
8698;SDS011;4386;51.236;6.742;2023-04-15T06:35:13;1.57;;;1.10;;
8698;SDS011;4386;51.236;6.742;2023-04-15T06:36:23;3.63;;;1.20;;
8698;SDS011;4386;51.236;6.742;2023-04-15T06:37:28;2.20;;;1.23;;
8698;SDS011;4386;51.236;6.742;2023-04-15T06:38:31;1.47;;;1.20;;
8698;SDS011;4386;51.236;6.742;2023-04-15T06:39:35;1.80;;;1.00;;
8698;SDS011;4386;51.236;6.742;2023-04-15T06:40:38;1.33;;;1.20;;
8698;SDS011;4386;51.236;6.742;2023-04-15T06:41:41;1.20;;;1.10;;
8698;SDS011;4386;51.236;6.742;2023-04-15T06:42:44;1.93;;;1.30;;
8698;SDS011;4386;51.236;6.742;2023-04-15T06:43:48;1.90;;;1.27;;
8698;SDS011;4386;51.236;6.742;2023-04-15T06:44:54;2.70;;;1.07;;
8698;SDS011;4386;51.236;6.742;2023-04-15T06:45:58;2.83;;;1.20;;
8698;SDS011;4386;51.236;6.742;2023-04-15T06:47:05;1.23;;;1.13;;
8698;SDS011;4386;51.236;6.742;2023-04-15T06:48:10;2.03;;;1.23;;
8698;SDS011;4386;51.236;6.742;2023-04-15T06:49:13;2.07;;;1.00;;
8698;SDS011;4386;51.236;6.742;2023-04-15T06:50:28;0.97;;;0.87;;
8698;SDS011;4386;51.236;6.742;2023-04-15T06:51:36;1.67;;;1.20;;
8698;SDS011;4386;51.236;6.742;2023-04-15T06:52:40;1.20;;;1.10;;
8698;SDS011;4386;51.236;6.742;2023-04-15T06:53:52;1.23;;;1.10;;
8698;SDS011;4386;51.236;6.742;2023-04-15T06:54:55;2.80;;;1.27;;
8698;SDS011;4386;51.236;6.742;2023-04-15T06:56:03;1.40;;;1.30;;
8698;SDS011;4386;51.236;6.742;2023-04-15T06:57:07;1.70;;;1.10;;
8698;SDS011;4386;51.236;6.742;2023-04-15T06:58:11;3.20;;;1.30;;
8698;SDS011;4386;51.236;6.742;2023-04-15T06:59:18;2.50;;;1.03;;
8698;SDS011;4386;51.236;6.742;2023-04-15T07:00:22;1.50;;;1.07;;
8698;SDS011;4386;51.236;6.742;2023-04-15T07:01:32;2.10;;;1.07;;
8698;SDS011;4386;51.236;6.742;2023-04-15T07:02:57;1.10;;;0.90;;
8698;SDS011;4386;51.236;6.742;2023-04-15T07:04:21;2.07;;;1.20;;
8698;SDS011;4386;51.236;6.742;2023-04-15T07:05:45;1.10;;;0.90;;
8698;SDS011;4386;51.236;6.742;2023-04-15T07:07:08;2.37;;;1.20;;
8698;SDS011;4386;51.236;6.742;2023-04-15T07:08:33;2.73;;;1.10;;
8698;SDS011;4386;51.236;6.742;2023-04-15T07:09:56;0.90;;;0.90;;
8698;SDS011;4386;51.236;6.742;2023-04-15T07:11:20;1.03;;;0.93;;
8698;SDS011;4386;51.236;6.742;2023-04-15T07:12:43;1.57;;;1.20;;
8698;SDS011;4386;51.236;6.742;2023-04-15T07:14:06;4.10;;;1.17;;
8698;SDS011;4386;51.236;6.742;2023-04-15T07:15:29;1.90;;;1.20;;
8698;SDS011;4386;51.236;6.742;2023-04-15T07:16:52;2.13;;;1.30;;
8698;SDS011;4386;51.236;6.742;2023-04-15T07:18:15;2.20;;;1.10;;
8698;SDS011;4386;51.236;6.742;2023-04-15T07:19:38;2.00;;;1.57;;
8698;SDS011;4386;51.236;6.742;2023-04-15T07:21:02;1.40;;;1.30;;
8698;SDS011;4386;51.236;6.742;2023-04-15T07:22:25;1.47;;;1.37;;
8698;SDS011;4386;51.236;6.742;2023-04-15T07:23:49;1.77;;;1.00;;
8698;SDS011;4386;51.236;6.742;2023-04-15T07:25:12;1.73;;;1.30;;
8698;SDS011;4386;51.236;6.742;2023-04-15T07:26:35;3.80;;;2.13;;
8698;SDS011;4386;51.236;6.742;2023-04-15T07:27:59;5.43;;;1.70;;
8698;SDS011;4386;51.236;6.742;2023-04-15T07:29:23;2.23;;;1.90;;
8698;SDS011;4386;51.236;6.742;2023-04-15T07:30:47;2.23;;;1.23;;
8698;SDS011;4386;51.236;6.742;2023-04-15T07:32:11;2.53;;;1.47;;